Terminal Aerodrome Forecast
Issued by NWS

Home | Current Version | Previous Version | Text Only | Print | Product List | Glossary On
Versions: 1 2 3 4 5 6 7 8 9 10 11 12 13 14 15
000
FTUS46 KSEW 282334
TAFPAE
TAF
KPAE 282334Z 2900/2924 34006KT P6SM BKN060
     FM291000 05004KT P6SM BKN025 OVC040
      TEMPO 2910/2914 -SHRA SCT015 OVC025
     FM291400 26005KT P6SM -SHRA SCT010 BKN060
     FM292000 30005KT P6SM SCT040 SCT060=

USA.gov is the U.S. government's official web portal to all federal, state and local government web resources and services.